createdAt,value
2023-11-12T00:01:32.347Z,100442.47
2023-11-12T00:04:03.855Z,100443.25
2023-11-12T00:06:35.976Z,100433.16
2023-11-12T00:09:06.659Z,100434.13
2023-11-12T00:11:37.315Z,100435.00
2023-11-12T00:14:07.641Z,100429.28
2023-11-12T00:16:37.614Z,100434.06
2023-11-12T00:19:09.286Z,100434.59
2023-11-12T00:21:39.413Z,100421.94
2023-11-12T00:24:12.928Z,100432.25
2023-11-12T00:26:44.675Z,100433.22
2023-11-12T00:29:14.635Z,100438.81
2023-11-12T00:31:45.063Z,100436.41
2023-11-12T00:34:16.768Z,100434.88
2023-11-12T00:36:46.189Z,100437.53
2023-11-12T00:39:18.848Z,100437.50
2023-11-12T00:41:49.173Z,100428.66
2023-11-12T00:44:19.091Z,100398.47
2023-11-12T00:46:48.931Z,100433.28
2023-11-12T00:49:20.267Z,100435.06
2023-11-12T00:51:50.784Z,100428.47
2023-11-12T00:54:20.907Z,100430.47
2023-11-12T00:56:51.229Z,100399.69
2023-11-12T00:59:22.858Z,100420.28
2023-11-12T01:01:52.737Z,100427.13
2023-11-12T01:04:28.847Z,100418.94
2023-11-12T01:07:01.169Z,100432.28
2023-11-12T01:09:33.959Z,100424.97
2023-11-12T01:12:04.773Z,100425.09
2023-11-12T01:14:35.306Z,100412.31
2023-11-12T01:17:06.667Z,100421.63
2023-11-12T01:19:38.744Z,100197.47
2023-11-12T01:22:11.537Z,100423.38
2023-11-12T01:24:42.832Z,100411.88
2023-11-12T01:27:13.319Z,100416.09
2023-11-12T01:29:43.281Z,100420.03
2023-11-12T01:32:14.260Z,100408.34
2023-11-12T01:35:04.678Z,100404.53
2023-11-12T01:37:34.579Z,100410.31
2023-11-12T01:40:05.659Z,100408.34
2023-11-12T01:42:36.009Z,100395.03
2023-11-12T01:45:12.502Z,100402.09
2023-11-12T01:47:45.756Z,100410.50
2023-11-12T01:50:17.425Z,100399.91
2023-11-12T01:52:51.200Z,100398.16
2023-11-12T01:55:23.660Z,100397.44
2023-11-12T01:57:58.523Z,100183.50
2023-11-12T02:00:29.106Z,100413.78
2023-11-12T02:03:05.721Z,100406.19
2023-11-12T02:05:38.651Z,100413.19
2023-11-12T02:08:10.435Z,100390.06
2023-11-12T02:10:44.526Z,100411.38
2023-11-12T02:13:15.480Z,100408.91
2023-11-12T02:15:49.055Z,100406.41
2023-11-12T02:18:20.027Z,100397.00
2023-11-12T02:20:52.827Z,100410.56
2023-11-12T02:23:23.340Z,100388.00
2023-11-12T02:25:55.209Z,100413.78
2023-11-12T02:28:27.028Z,100419.25
2023-11-12T02:30:56.987Z,100408.28
2023-11-12T02:33:33.843Z,100415.19
2023-11-12T02:36:04.860Z,100410.28
2023-11-12T02:38:35.090Z,100413.59
2023-11-12T02:41:11.167Z,100415.38
2023-11-12T02:43:43.432Z,100411.72
2023-11-12T02:46:17.527Z,100413.53
2023-11-12T02:49:13.789Z,100415.19
2023-11-12T02:51:46.516Z,100412.41
2023-11-12T02:54:18.569Z,100413.97
2023-11-12T02:56:50.072Z,100409.53
2023-11-12T02:59:21.887Z,100409.28
2023-11-12T03:01:51.747Z,100400.78
2023-11-12T03:04:22.228Z,100404.25
2023-11-12T03:06:55.395Z,100399.06
2023-11-12T03:09:30.192Z,100404.19
2023-11-12T03:12:04.283Z,100410.69
2023-11-12T03:14:35.083Z,100398.94
2023-11-12T03:17:05.649Z,100403.34
2023-11-12T03:19:37.161Z,100403.25
2023-11-12T03:22:07.224Z,100408.38
2023-11-12T03:24:38.281Z,100383.19
2023-11-12T03:27:10.559Z,100408.31
2023-11-12T03:29:40.722Z,100409.22
2023-11-12T03:32:11.674Z,100394.84
2023-11-12T03:34:45.824Z,100404.09
2023-11-12T03:37:16.279Z,100399.81
2023-11-12T03:39:46.424Z,100410.13
2023-11-12T03:42:18.885Z,100397.16
2023-11-12T03:44:50.777Z,100399.97
2023-11-12T03:47:21.012Z,100393.56
2023-11-12T03:49:50.807Z,100399.47
2023-11-12T03:52:20.784Z,100395.06
2023-11-12T03:54:50.602Z,100403.91
2023-11-12T03:57:22.605Z,100399.69
2023-11-12T03:59:53.391Z,100395.47
2023-11-12T04:02:23.621Z,100395.63
2023-11-12T04:04:53.828Z,100393.16
2023-11-12T04:07:24.801Z,100389.75
2023-11-12T04:10:01.214Z,100391.50
2023-11-12T04:12:32.489Z,100382.16
2023-11-12T04:15:02.680Z,100164.06
2023-11-12T04:17:33.419Z,100392.03
2023-11-12T04:20:04.082Z,100390.34
2023-11-12T04:22:34.170Z,100345.38
2023-11-12T04:25:04.507Z,100388.22
2023-11-12T04:27:39.431Z,100384.16
2023-11-12T04:30:13.190Z,100386.03
2023-11-12T04:32:43.026Z,100396.03
2023-11-12T04:35:14.760Z,100392.00
2023-11-12T04:37:44.586Z,100393.44
2023-11-12T04:40:17.938Z,100395.44
2023-11-12T04:42:49.663Z,100394.06
2023-11-12T04:45:21.472Z,100388.84
2023-11-12T04:47:52.009Z,100378.28
2023-11-12T04:50:25.029Z,100399.06
2023-11-12T04:53:00.274Z,100402.44
2023-11-12T04:55:30.815Z,100399.03
2023-11-12T04:58:02.962Z,100401.13
2023-11-12T05:00:36.672Z,100373.06
2023-11-12T05:03:07.190Z,100403.69
2023-11-12T05:05:37.636Z,100407.41
2023-11-12T05:08:07.067Z,100320.00
2023-11-12T05:10:44.948Z,100407.41
2023-11-12T05:13:17.595Z,100417.22
2023-11-12T05:15:47.930Z,100409.19
2023-11-12T05:18:17.899Z,100416.66
2023-11-12T05:20:49.004Z,100416.53
2023-11-12T05:23:18.696Z,100412.16
2023-11-12T05:25:48.733Z,100413.69
2023-11-12T05:28:20.402Z,100425.09
2023-11-12T05:30:50.537Z,100422.50
2023-11-12T05:33:20.339Z,100410.69
2023-11-12T05:35:52.745Z,100428.31
2023-11-12T05:38:23.110Z,100422.16
2023-11-12T05:40:53.309Z,100417.19
2023-11-12T05:43:25.075Z,100421.16
2023-11-12T05:45:55.531Z,100426.00
2023-11-12T05:48:25.481Z,100368.69
2023-11-12T05:51:02.564Z,100426.50
2023-11-12T05:53:32.274Z,100421.69
2023-11-12T05:56:01.516Z,100425.84
2023-11-12T05:58:32.301Z,100429.34
2023-11-12T06:01:01.156Z,100429.06
2023-11-12T06:03:30.947Z,100438.00
2023-11-12T06:05:59.966Z,100460.53
2023-11-12T06:08:28.793Z,100441.81
2023-11-12T06:10:57.578Z,100438.59
2023-11-12T06:13:26.435Z,100436.63
2023-11-12T06:15:56.635Z,100439.13
2023-11-12T06:18:25.707Z,100377.53
2023-11-12T06:20:54.697Z,100446.69
2023-11-12T06:23:23.491Z,100392.78
2023-11-12T06:25:52.458Z,100429.34
2023-11-12T06:28:23.760Z,100439.34
2023-11-12T06:30:55.161Z,100395.16
2023-11-12T06:33:25.633Z,100438.75
2023-11-12T06:35:54.541Z,100436.13
2023-11-12T06:38:24.593Z,100282.47
2023-11-12T06:40:53.701Z,100433.75
2023-11-12T06:43:22.830Z,100447.25
2023-11-12T06:45:51.992Z,100428.66
2023-11-12T06:48:25.704Z,100445.56
2023-11-12T06:50:56.140Z,100443.88
2023-11-12T06:53:25.042Z,100444.78
2023-11-12T06:55:54.398Z,100451.00
2023-11-12T06:58:25.784Z,100442.97
2023-11-12T07:00:57.110Z,100455.09
2023-11-12T07:03:28.143Z,100455.97
2023-11-12T07:06:00.238Z,100456.78
2023-11-12T07:08:32.296Z,100451.75
2023-11-12T07:11:03.939Z,100452.47
2023-11-12T07:13:32.972Z,100456.53
2023-11-12T07:16:03.786Z,100455.88
2023-11-12T07:18:45.433Z,100433.72
2023-11-12T07:21:32.602Z,100474.97
2023-11-12T07:24:01.803Z,100465.25
2023-11-12T07:26:31.152Z,100449.69
2023-11-12T07:29:00.308Z,100466.78
2023-11-12T07:31:30.627Z,100479.41
2023-11-12T07:33:59.739Z,100481.00
2023-11-12T07:36:32.408Z,100484.69
2023-11-12T07:39:02.965Z,100488.59
2023-11-12T07:41:39.792Z,100472.28
2023-11-12T07:44:13.453Z,100477.13
2023-11-12T07:46:42.963Z,100487.88
2023-11-12T07:49:13.513Z,100495.88
2023-11-12T07:51:49.733Z,100487.41
2023-11-12T07:54:18.719Z,100492.63
2023-11-12T07:56:48.209Z,100424.72
2023-11-12T07:59:17.336Z,100489.94
2023-11-12T08:01:49.603Z,100489.41
2023-11-12T08:04:19.545Z,100484.88
2023-11-12T08:06:52.288Z,100447.22
2023-11-12T08:09:21.310Z,100490.16
2023-11-12T08:11:50.263Z,100493.50
2023-11-12T08:14:19.395Z,100467.56
2023-11-12T08:16:48.445Z,100504.34
2023-11-12T08:19:17.646Z,100495.47
2023-11-12T08:21:46.895Z,100494.38
2023-11-12T08:24:17.894Z,100492.81
2023-11-12T08:26:46.934Z,100505.66
2023-11-12T08:29:17.262Z,100501.19
2023-11-12T08:31:46.346Z,100497.22
2023-11-12T08:34:15.844Z,100504.00
2023-11-12T08:36:44.628Z,100503.09
2023-11-12T08:39:14.625Z,100504.50
2023-11-12T08:41:48.157Z,100499.47
2023-11-12T08:44:19.528Z,100503.88
2023-11-12T08:46:51.486Z,100492.44
2023-11-12T08:49:22.907Z,100504.56
2023-11-12T08:51:51.806Z,100497.81
2023-11-12T08:54:21.046Z,100500.41
2023-11-12T08:56:54.726Z,100515.22
2023-11-12T08:59:24.343Z,100504.19
2023-11-12T09:01:53.889Z,100499.22
2023-11-12T09:04:23.313Z,100501.50
2023-11-12T09:06:52.446Z,100515.50
2023-11-12T09:09:21.786Z,100516.66
2023-11-12T09:11:50.821Z,100521.88
2023-11-12T09:14:23.724Z,100520.38
2023-11-12T09:16:55.143Z,100508.53
2023-11-12T09:19:24.145Z,100520.81
2023-11-12T09:21:54.558Z,100502.22
2023-11-12T09:24:24.140Z,100480.66
2023-11-12T09:26:53.737Z,100510.03
2023-11-12T09:29:24.960Z,100534.59
2023-11-12T09:31:53.918Z,100530.03
2023-11-12T09:34:23.227Z,100553.41
2023-11-12T09:36:53.019Z,100538.94
2023-11-12T09:39:24.706Z,100539.06
2023-11-12T09:42:00.107Z,100517.84
2023-11-12T09:44:33.445Z,100537.38
2023-11-12T09:47:13.614Z,100548.00
2023-11-12T09:49:42.920Z,100539.47
2023-11-12T09:52:14.508Z,100544.19
2023-11-12T09:54:45.519Z,100544.34
2023-11-12T09:57:15.020Z,100544.94
2023-11-12T09:59:47.804Z,100548.97
2023-11-12T10:02:18.961Z,100542.88
2023-11-12T10:04:59.200Z,100529.38
2023-11-12T10:07:30.480Z,100523.31
2023-11-12T10:10:22.864Z,100486.31
2023-11-12T10:12:53.614Z,100545.03
2023-11-12T10:15:28.416Z,100546.66
2023-11-12T10:18:01.047Z,100552.09
2023-11-12T10:20:38.377Z,100557.59
2023-11-12T10:23:32.392Z,100558.44
2023-11-12T10:26:12.662Z,100550.47
2023-11-12T10:28:47.727Z,100563.31
2023-11-12T10:31:19.009Z,100551.97
2023-11-12T10:34:01.193Z,100532.41
2023-11-12T10:36:30.285Z,100544.66
2023-11-12T10:39:12.684Z,100552.69
2023-11-12T10:41:45.116Z,100399.75
2023-11-12T10:44:18.354Z,100558.50
2023-11-12T10:46:54.148Z,100548.75
2023-11-12T10:49:25.230Z,100550.13
2023-11-12T10:51:57.211Z,100539.91
2023-11-12T10:54:27.756Z,100542.38
2023-11-12T10:56:59.760Z,100550.28
2023-11-12T10:59:32.285Z,100554.13
2023-11-12T11:02:03.196Z,100555.81
2023-11-12T11:04:35.842Z,100556.88
2023-11-12T11:07:05.083Z,100532.41
2023-11-12T11:09:34.397Z,100556.50
2023-11-12T11:12:03.500Z,100563.00
2023-11-12T11:14:35.571Z,100491.69
2023-11-12T11:17:09.639Z,100551.38
2023-11-12T11:19:57.003Z,100567.66
2023-11-12T11:22:39.927Z,100566.22
2023-11-12T11:25:26.635Z,100569.16
2023-11-12T11:28:23.301Z,100581.91
2023-11-12T11:31:18.140Z,100573.78
2023-11-12T11:33:53.333Z,100577.75
2023-11-12T11:36:24.810Z,100575.69
2023-11-12T11:39:26.378Z,100578.66
2023-11-12T11:42:20.188Z,100577.72
2023-11-12T11:44:51.441Z,100585.66
2023-11-12T11:47:23.823Z,100583.38
2023-11-12T11:50:45.877Z,100585.00
2023-11-12T11:53:18.440Z,100595.13
2023-11-12T11:55:56.638Z,100597.13
2023-11-12T11:58:29.887Z,100579.03
2023-11-12T12:01:14.033Z,100596.41
2023-11-12T12:03:55.100Z,100601.81
2023-11-12T12:06:28.586Z,100589.63
2023-11-12T12:08:58.948Z,100564.75
2023-11-12T12:11:35.210Z,100593.34
2023-11-12T12:14:06.175Z,100593.53
2023-11-12T12:16:36.014Z,100596.66
2023-11-12T12:19:06.477Z,100561.88
2023-11-12T12:21:37.873Z,100594.75
2023-11-12T12:24:08.159Z,100592.19
2023-11-12T12:26:41.022Z,100586.09
2023-11-12T12:29:23.150Z,100593.63
2023-11-12T12:31:55.171Z,100595.53
2023-11-12T12:34:26.098Z,100574.22
2023-11-12T12:36:58.503Z,100598.44
2023-11-12T12:39:29.799Z,100596.78
2023-11-12T12:42:04.962Z,100566.25
2023-11-12T12:44:34.882Z,100596.19
2023-11-12T12:47:04.046Z,100589.91
2023-11-12T12:49:34.673Z,100591.59
2023-11-12T12:52:08.145Z,100577.13
2023-11-12T12:54:40.037Z,100582.78
2023-11-12T12:57:09.133Z,100584.34
2023-11-12T12:59:39.050Z,100585.63
2023-11-12T13:02:11.152Z,100577.69
2023-11-12T13:04:40.725Z,100585.19
2023-11-12T13:07:11.687Z,100577.84
2023-11-12T13:09:41.998Z,100212.94
2023-11-12T13:12:13.637Z,100585.56
2023-11-12T13:14:46.631Z,100567.38
2023-11-12T13:17:15.740Z,100615.44
2023-11-12T13:19:45.830Z,100558.06
2023-11-12T13:22:16.279Z,100583.69
2023-11-12T13:24:47.552Z,100587.00
2023-11-12T13:27:16.672Z,100587.28
2023-11-12T13:29:48.961Z,100577.16
2023-11-12T13:32:18.575Z,100597.88
2023-11-12T13:34:49.192Z,100590.75
2023-11-12T13:37:19.535Z,100594.56
2023-11-12T13:39:48.601Z,100594.69
2023-11-12T13:42:18.234Z,100591.41
2023-11-12T13:44:49.709Z,100599.06
2023-11-12T13:47:21.507Z,100581.63
2023-11-12T13:49:50.852Z,100594.03
2023-11-12T13:52:23.447Z,100601.03
2023-11-12T13:54:52.507Z,100599.16
2023-11-12T13:57:23.215Z,100599.84
2023-11-12T13:59:52.500Z,100605.78
2023-11-12T14:02:21.768Z,100605.63
2023-11-12T14:04:53.747Z,100612.09
2023-11-12T14:07:24.945Z,100606.69
2023-11-12T14:09:54.318Z,100640.94
2023-11-12T14:12:23.670Z,100605.91
2023-11-12T14:14:52.643Z,100613.69
2023-11-12T14:17:25.459Z,100615.91
2023-11-12T14:20:04.597Z,100642.63
2023-11-12T14:22:36.021Z,100500.97
2023-11-12T14:25:09.005Z,100608.34
2023-11-12T14:27:42.052Z,100603.50
2023-11-12T14:30:14.757Z,100598.81
2023-11-12T14:32:46.341Z,100607.25
2023-11-12T14:35:18.186Z,100547.41
2023-11-12T14:37:49.040Z,100567.31
2023-11-12T14:40:18.518Z,100612.31
2023-11-12T14:42:48.005Z,100549.03
2023-11-12T14:45:25.861Z,100608.22
2023-11-12T14:48:01.317Z,100610.00
2023-11-12T14:50:33.915Z,100612.38
2023-11-12T14:53:04.353Z,100616.34
2023-11-12T14:55:38.151Z,100611.16
2023-11-12T14:58:07.631Z,100623.56
2023-11-12T15:00:41.246Z,100628.22
2023-11-12T15:03:10.369Z,100564.44
2023-11-12T15:05:39.248Z,100636.69
2023-11-12T15:08:10.517Z,100641.34
2023-11-12T15:10:43.287Z,100643.44
2023-11-12T15:13:12.651Z,100634.63
2023-11-12T15:15:41.582Z,100651.50
2023-11-12T15:18:14.197Z,100648.59
2023-11-12T15:20:44.824Z,100659.63
2023-11-12T15:23:15.312Z,100667.31
2023-11-12T15:25:44.487Z,100655.75
2023-11-12T15:28:13.965Z,100686.75
2023-11-12T15:30:48.335Z,100655.53
2023-11-12T15:33:17.551Z,100677.63
2023-11-12T15:35:46.696Z,100301.94
2023-11-12T15:38:18.315Z,100686.88
2023-11-12T15:40:48.058Z,100679.13
2023-11-12T15:43:17.639Z,100667.81
2023-11-12T15:45:49.175Z,100663.00
2023-11-12T15:48:18.364Z,100660.72
2023-11-12T15:50:49.197Z,100666.66
2023-11-12T15:53:21.657Z,100659.03
2023-11-12T15:55:51.117Z,100651.69
2023-11-12T15:58:21.248Z,100656.00
2023-11-12T16:00:50.450Z,100649.19
2023-11-12T16:03:22.164Z,100654.72
2023-11-12T16:05:51.417Z,100652.97
2023-11-12T16:08:24.980Z,100645.97
2023-11-12T16:10:56.557Z,100685.03
2023-11-12T16:13:25.823Z,100663.63
2023-11-12T16:15:55.524Z,100665.13
2023-11-12T16:18:24.867Z,100672.56
2023-11-12T16:20:54.017Z,100684.81
2023-11-12T16:23:25.316Z,100681.53
2023-11-12T16:25:55.588Z,100687.75
2023-11-12T16:28:24.552Z,100674.50
2023-11-12T16:30:55.293Z,100674.50
2023-11-12T16:33:24.914Z,100678.66
2023-11-12T16:35:53.762Z,100677.22
2023-11-12T16:38:24.437Z,100663.41
2023-11-12T16:40:53.325Z,100674.69
2023-11-12T16:43:22.793Z,100671.41
2023-11-12T16:45:53.083Z,100672.88
2023-11-12T16:48:22.627Z,100670.53
2023-11-12T16:50:54.139Z,100665.94
2023-11-12T16:53:26.209Z,100645.69
2023-11-12T16:55:56.064Z,100666.00
2023-11-12T16:58:25.312Z,100653.38
2023-11-12T17:00:56.185Z,100669.00
2023-11-12T17:03:25.524Z,100665.59
2023-11-12T17:05:54.788Z,100664.59
2023-11-12T17:08:25.387Z,100661.06
2023-11-12T17:10:55.524Z,100653.22
2023-11-12T17:13:25.000Z,100652.84
2023-11-12T17:15:53.987Z,100627.16
2023-11-12T17:18:25.744Z,100609.97
2023-11-12T17:20:54.905Z,100670.03
2023-11-12T17:23:25.609Z,100679.56
2023-11-12T17:25:55.286Z,100503.13
2023-11-12T17:28:24.952Z,100695.16
2023-11-12T17:30:56.719Z,100710.38
2023-11-12T17:33:27.373Z,100695.31
2023-11-12T17:35:56.679Z,100700.38
2023-11-12T17:38:35.078Z,100685.53
2023-11-12T17:41:05.059Z,100688.59
2023-11-12T17:43:34.168Z,100710.63
2023-11-12T17:46:07.065Z,100711.31
2023-11-12T17:48:36.265Z,100709.34
2023-11-12T17:51:05.661Z,100727.56
2023-11-12T17:53:39.432Z,100740.66
2023-11-12T17:56:13.433Z,100753.56
2023-11-12T17:58:42.478Z,100739.81
2023-11-12T18:01:14.015Z,100733.50
2023-11-12T18:03:44.065Z,100733.72
2023-11-12T18:06:13.608Z,100695.50
2023-11-12T18:08:44.072Z,100749.94
2023-11-12T18:11:18.141Z,100737.34
2023-11-12T18:13:48.936Z,100714.66
2023-11-12T18:16:21.195Z,100735.22
2023-11-12T18:18:50.646Z,100734.16
2023-11-12T18:21:19.826Z,100745.56
2023-11-12T18:23:50.062Z,100727.75
2023-11-12T18:26:20.024Z,100735.78
2023-11-12T18:28:53.204Z,100742.34
2023-11-12T18:31:25.320Z,100742.22
2023-11-12T18:33:54.551Z,100728.97
2023-11-12T18:36:23.790Z,100736.69
2023-11-12T18:38:54.103Z,100729.94
2023-11-12T18:41:23.327Z,100683.91
2023-11-12T18:43:53.363Z,100713.19
2023-11-12T18:46:22.943Z,100719.66
2023-11-12T18:48:52.282Z,100683.50
2023-11-12T18:51:21.478Z,100716.25
2023-11-12T18:53:51.610Z,100711.72
2023-11-12T18:56:22.160Z,100698.63
2023-11-12T18:58:57.059Z,100663.97
2023-11-12T19:01:26.505Z,100677.84
2023-11-12T19:03:55.991Z,100674.50
2023-11-12T19:06:25.707Z,100684.50
2023-11-12T19:08:55.053Z,100680.22
2023-11-12T19:11:28.027Z,100686.88
2023-11-12T19:13:58.525Z,100683.78
2023-11-12T19:16:28.579Z,100684.22
2023-11-12T19:18:59.827Z,100679.91
2023-11-12T19:21:29.176Z,100685.72
2023-11-12T19:23:59.303Z,100691.53
2023-11-12T19:26:29.082Z,100695.19
2023-11-12T19:30:15.010Z,100692.81
2023-11-12T19:32:46.790Z,100659.41
2023-11-12T19:35:19.765Z,100685.03
2023-11-12T19:37:49.175Z,100657.28
2023-11-12T19:40:23.439Z,100683.63
2023-11-12T19:42:53.788Z,100686.75
2023-11-12T19:45:23.024Z,100715.09
2023-11-12T19:47:55.638Z,100713.88
2023-11-12T19:50:25.219Z,100716.69
2023-11-12T19:52:54.127Z,100705.72
2023-11-12T19:55:25.395Z,100713.03
2023-11-12T19:57:55.991Z,100717.75
2023-11-12T20:00:25.309Z,100712.81
2023-11-12T20:02:54.481Z,100697.56
2023-11-12T20:05:24.021Z,100687.28
2023-11-12T20:07:52.974Z,100701.63
2023-11-12T20:10:22.499Z,100702.25
2023-11-12T20:12:51.775Z,100693.38
2023-11-12T20:15:22.730Z,100720.09
2023-11-12T20:17:52.744Z,100716.59
2023-11-12T20:20:27.412Z,100716.03
2023-11-12T20:22:58.640Z,100699.81
2023-11-12T20:25:28.395Z,100716.16
2023-11-12T20:27:58.199Z,100701.78
2023-11-12T20:30:33.666Z,100681.50
2023-11-12T20:33:04.364Z,100687.53
2023-11-12T20:35:33.978Z,100709.06
2023-11-12T20:38:07.061Z,100722.88
2023-11-12T20:40:39.349Z,100720.44
2023-11-12T20:43:11.912Z,100712.91
2023-11-12T20:45:43.023Z,100711.13
2023-11-12T20:48:17.205Z,100729.63
2023-11-12T20:50:46.418Z,100717.66
2023-11-12T20:53:16.309Z,100694.59
2023-11-12T20:55:45.462Z,100672.53
2023-11-12T20:58:17.666Z,100692.81
2023-11-12T21:00:49.269Z,100681.84
2023-11-12T21:03:23.440Z,100691.38
2023-11-12T21:05:53.250Z,100679.03
2023-11-12T21:08:23.410Z,100681.53
2023-11-12T21:10:53.924Z,100675.47
2023-11-12T21:13:24.409Z,100695.41
2023-11-12T21:15:56.768Z,100721.25
2023-11-12T21:18:36.389Z,100714.13
2023-11-12T21:21:06.632Z,100697.63
2023-11-12T21:23:37.098Z,100701.66
2023-11-12T21:26:14.311Z,100717.03
2023-11-12T21:28:45.062Z,100712.94
2023-11-12T21:31:17.068Z,100724.53
2023-11-12T21:33:49.605Z,100685.47
2023-11-12T21:36:20.287Z,100728.97
2023-11-12T21:38:50.625Z,100739.88
2023-11-12T21:41:21.013Z,100737.38
2023-11-12T21:43:52.375Z,100740.84
2023-11-12T21:46:24.490Z,100737.47
2023-11-12T21:48:54.675Z,100683.75
2023-11-12T21:51:31.713Z,100726.19
2023-11-12T21:54:02.061Z,100735.97
2023-11-12T21:56:32.193Z,100585.41
2023-11-12T21:59:03.197Z,100742.91
2023-11-12T22:01:34.691Z,100739.25
2023-11-12T22:04:05.427Z,100750.59
2023-11-12T22:06:38.396Z,100749.03
2023-11-12T22:09:14.946Z,100751.03
2023-11-12T22:11:48.015Z,100547.41
2023-11-12T22:14:18.239Z,100727.94
2023-11-12T22:16:49.478Z,100761.63
2023-11-12T22:19:22.094Z,100738.88
2023-11-12T22:21:52.063Z,100723.13
2023-11-12T22:24:22.883Z,100745.88
2023-11-12T22:26:54.058Z,100711.22
2023-11-12T22:29:23.977Z,100736.16
2023-11-12T22:31:55.711Z,100724.44
2023-11-12T22:34:26.340Z,100722.53
2023-11-12T22:36:56.009Z,100681.72
2023-11-12T22:39:25.981Z,100689.88
2023-11-12T22:41:55.976Z,100702.66
2023-11-12T22:44:25.963Z,100687.78
2023-11-12T22:46:58.511Z,100684.63
2023-11-12T22:49:29.335Z,100680.03
2023-11-12T22:51:59.668Z,100685.50
2023-11-12T22:54:32.018Z,100683.88
2023-11-12T22:57:01.168Z,100693.13
2023-11-12T22:59:31.191Z,100681.38
2023-11-12T23:02:03.360Z,100670.09
2023-11-12T23:04:32.619Z,100653.19
2023-11-12T23:07:05.209Z,100645.25
2023-11-12T23:09:35.677Z,100616.31
2023-11-12T23:12:11.896Z,100678.88
2023-11-12T23:14:41.779Z,100679.03
2023-11-12T23:17:14.200Z,100680.53
2023-11-12T23:19:44.514Z,100527.00
2023-11-12T23:22:15.751Z,100707.19
2023-11-12T23:24:45.786Z,100692.84
2023-11-12T23:27:16.774Z,100687.34
2023-11-12T23:29:50.298Z,100688.59
2023-11-12T23:32:21.194Z,100683.84
2023-11-12T23:34:50.777Z,100675.06
2023-11-12T23:37:21.317Z,100678.19
2023-11-12T23:39:51.132Z,100635.78
2023-11-12T23:42:20.842Z,100683.09
2023-11-12T23:44:49.975Z,100662.69
2023-11-12T23:47:22.108Z,100663.47
2023-11-12T23:49:51.666Z,100654.22
2023-11-12T23:52:21.222Z,100644.69
2023-11-12T23:54:50.567Z,100659.00
2023-11-12T23:57:19.861Z,100645.94
2023-11-12T23:59:49.499Z,100648.72
